createdAt,value
2023-05-23T00:00:23.931Z,99866.20
2023-05-23T00:01:27.012Z,99871.59
2023-05-23T00:02:29.335Z,99869.59
2023-05-23T00:03:31.852Z,99875.64
2023-05-23T00:04:35.380Z,99867.05
2023-05-23T00:05:37.792Z,99868.41
2023-05-23T00:06:40.890Z,99864.34
2023-05-23T00:09:03.066Z,99863.63
2023-05-23T00:10:07.664Z,99858.45
2023-05-23T00:11:10.416Z,99858.77
2023-05-23T00:12:12.530Z,99854.89
2023-05-23T00:13:17.286Z,99863.48
2023-05-23T00:14:19.647Z,99860.78
2023-05-23T00:15:22.044Z,99857.91
2023-05-23T00:16:26.428Z,99857.72
2023-05-23T00:17:28.742Z,99854.37
2023-05-23T00:18:31.297Z,99850.17
2023-05-23T00:19:34.619Z,99848.51
2023-05-23T00:20:38.697Z,99846.63
2023-05-23T00:22:52.825Z,99847.61
2023-05-23T00:23:55.164Z,99847.80
2023-05-23T00:24:57.877Z,99839.72
2023-05-23T00:26:00.068Z,99844.95
2023-05-23T00:27:02.696Z,99835.02
2023-05-23T00:28:05.634Z,99837.02
2023-05-23T00:29:09.023Z,99839.91
2023-05-23T00:30:12.156Z,99845.81
2023-05-23T00:31:16.754Z,99838.73
2023-05-23T00:33:32.500Z,99842.72
2023-05-23T00:34:35.432Z,99842.94
2023-05-23T00:36:51.804Z,99832.48
2023-05-23T00:37:55.380Z,99842.64
2023-05-23T00:38:57.862Z,99842.47
2023-05-23T00:40:00.274Z,99852.91
2023-05-23T00:41:06.717Z,99845.36
2023-05-23T00:42:09.088Z,99845.36
2023-05-23T00:43:11.469Z,99844.85
2023-05-23T00:44:15.969Z,99846.19
2023-05-23T00:45:18.310Z,99844.19
2023-05-23T00:46:20.905Z,99840.13
2023-05-23T00:47:23.848Z,99838.95
2023-05-23T00:48:27.640Z,99844.66
2023-05-23T00:49:31.892Z,99844.31
2023-05-23T00:50:35.024Z,99840.44
2023-05-23T00:51:39.765Z,99838.25
2023-05-23T00:52:46.168Z,99836.22
2023-05-23T00:53:48.901Z,99832.34
2023-05-23T00:54:52.671Z,99835.73
2023-05-23T00:55:57.382Z,99831.34
2023-05-23T00:56:59.821Z,99829.50
2023-05-23T00:58:02.324Z,99829.50
2023-05-23T00:59:05.312Z,99835.73
2023-05-23T01:00:14.888Z,99828.65
2023-05-23T01:01:17.948Z,99829.50
2023-05-23T01:02:20.687Z,99833.87
2023-05-23T01:03:23.074Z,99831.66
2023-05-23T01:04:25.743Z,99828.97
2023-05-23T01:05:28.183Z,99818.20
2023-05-23T01:06:31.648Z,99822.58
2023-05-23T01:07:34.602Z,99825.28
2023-05-23T01:09:53.719Z,99820.52
2023-05-23T01:11:00.836Z,99830.81
2023-05-23T01:12:35.757Z,99823.43
2023-05-23T01:13:44.612Z,99821.92
2023-05-23T01:15:07.436Z,99825.28
2023-05-23T01:16:34.437Z,99829.81
2023-05-23T01:18:07.271Z,99831.84
2023-05-23T01:21:41.339Z,99826.25
2023-05-23T01:22:59.374Z,99828.84
2023-05-23T01:24:14.116Z,99825.95
2023-05-23T01:25:36.981Z,99825.11
2023-05-23T01:27:07.053Z,99820.76
2023-05-23T01:28:12.271Z,99821.57
2023-05-23T01:29:18.148Z,99818.72
2023-05-23T01:30:20.903Z,99814.34
2023-05-23T01:31:24.704Z,99819.72
2023-05-23T01:32:28.587Z,99820.57
2023-05-23T01:33:32.514Z,99820.57
2023-05-23T01:34:36.405Z,99819.91
2023-05-23T01:35:39.736Z,99817.22
2023-05-23T01:36:44.162Z,99821.77
2023-05-23T01:37:46.557Z,99821.77
2023-05-23T01:38:48.816Z,99820.91
2023-05-23T01:39:51.788Z,99811.17
2023-05-23T01:40:54.605Z,99818.56
2023-05-23T01:41:57.035Z,99814.20
2023-05-23T01:42:59.324Z,99814.20
2023-05-23T01:44:04.460Z,99818.91
2023-05-23T01:45:08.636Z,99811.67
2023-05-23T01:46:12.951Z,99809.16
2023-05-23T01:47:15.774Z,99811.86
2023-05-23T01:48:18.716Z,99818.24
2023-05-23T01:49:25.204Z,99809.32
2023-05-23T01:50:28.369Z,99809.50
2023-05-23T01:51:31.108Z,99808.66
2023-05-23T01:52:33.774Z,99813.38
2023-05-23T01:53:37.085Z,99810.19
2023-05-23T01:54:40.055Z,99810.19
2023-05-23T01:55:42.623Z,99814.91
2023-05-23T01:56:45.256Z,99813.06
2023-05-23T01:57:50.253Z,99811.55
2023-05-23T01:58:52.626Z,99816.94
2023-05-23T01:59:56.763Z,99815.25
2023-05-23T02:00:59.842Z,99814.40
2023-05-23T02:02:02.543Z,99811.71
2023-05-23T02:03:05.241Z,99815.25
2023-05-23T02:04:08.939Z,99816.25
2023-05-23T02:05:11.230Z,99816.25
2023-05-23T02:06:15.382Z,99814.58
2023-05-23T02:07:17.690Z,99813.89
2023-05-23T02:08:21.971Z,99814.92
2023-05-23T02:09:24.293Z,99815.59
2023-05-23T02:10:27.002Z,99814.94
2023-05-23T02:11:29.348Z,99820.47
2023-05-23T02:12:31.677Z,99813.42
2023-05-23T02:13:34.866Z,99814.42
2023-05-23T02:14:38.281Z,99824.34
2023-05-23T02:15:40.820Z,99820.47
2023-05-23T02:16:44.213Z,99818.81
2023-05-23T02:17:46.483Z,99812.39
2023-05-23T02:18:49.095Z,99813.24
2023-05-23T02:19:51.622Z,99804.17
2023-05-23T02:20:53.929Z,99804.17
2023-05-23T02:21:56.229Z,99803.14
2023-05-23T02:23:00.143Z,99805.68
2023-05-23T02:24:03.040Z,99802.98
2023-05-23T02:25:07.228Z,99798.45
2023-05-23T02:26:10.072Z,99805.49
2023-05-23T02:27:12.514Z,99806.34
2023-05-23T02:28:14.955Z,99800.11
2023-05-23T02:29:17.764Z,99802.66
2023-05-23T02:30:21.351Z,99800.80
2023-05-23T02:31:25.763Z,99798.78
2023-05-23T02:32:28.176Z,99802.97
2023-05-23T02:33:32.088Z,99809.02
2023-05-23T02:34:34.359Z,99806.98
2023-05-23T02:35:36.742Z,99805.98
2023-05-23T02:36:39.158Z,99802.45
2023-05-23T02:37:41.575Z,99802.45
2023-05-23T02:38:43.827Z,99802.63
2023-05-23T02:39:47.944Z,99805.33
2023-05-23T02:40:50.609Z,99802.45
2023-05-23T02:41:53.169Z,99806.83
2023-05-23T02:42:55.441Z,99798.76
2023-05-23T02:44:00.570Z,99795.22
2023-05-23T02:45:03.424Z,99801.79
2023-05-23T02:46:06.445Z,99798.09
2023-05-23T02:47:09.434Z,99797.91
2023-05-23T02:48:11.999Z,99795.88
2023-05-23T02:49:14.992Z,99792.85
2023-05-23T02:50:18.063Z,99795.05
2023-05-23T02:51:20.397Z,99796.70
2023-05-23T02:52:23.890Z,99792.17
2023-05-23T02:53:26.137Z,99797.21
2023-05-23T02:54:29.942Z,99796.17
2023-05-23T02:55:32.482Z,99798.53
2023-05-23T02:56:35.001Z,99804.61
2023-05-23T02:57:37.373Z,99799.88
2023-05-23T02:58:39.721Z,99799.69
2023-05-23T02:59:42.088Z,99798.69
2023-05-23T03:00:44.401Z,99795.66
2023-05-23T03:01:46.731Z,99798.16
2023-05-23T03:02:49.369Z,99794.66
2023-05-23T03:03:51.686Z,99801.04
2023-05-23T03:04:54.670Z,99800.85
2023-05-23T03:05:57.865Z,99800.70
2023-05-23T03:07:00.366Z,99796.97
2023-05-23T03:08:02.908Z,99800.35
2023-05-23T03:09:05.265Z,99799.32
2023-05-23T03:10:09.234Z,99791.93
2023-05-23T03:11:11.538Z,99799.63
2023-05-23T03:12:13.914Z,99787.86
2023-05-23T03:13:17.161Z,99790.39
2023-05-23T03:14:20.411Z,99785.01
2023-05-23T03:15:24.490Z,99794.94
2023-05-23T03:16:27.303Z,99788.70
2023-05-23T03:17:30.171Z,99788.05
2023-05-23T03:18:33.069Z,99796.94
2023-05-23T03:19:36.778Z,99793.59
2023-05-23T03:20:39.511Z,99791.93
2023-05-23T03:21:41.943Z,99789.39
2023-05-23T03:22:44.553Z,99793.78
2023-05-23T03:23:46.968Z,99793.94
2023-05-23T03:24:49.302Z,99789.39
2023-05-23T03:25:51.687Z,99790.23
2023-05-23T03:26:54.173Z,99791.08
2023-05-23T03:27:56.890Z,99799.32
2023-05-23T03:29:00.780Z,99794.13
2023-05-23T03:30:04.551Z,99787.23
2023-05-23T03:31:07.102Z,99796.31
2023-05-23T03:32:09.691Z,99796.31
2023-05-23T03:33:12.354Z,99797.34
2023-05-23T03:34:14.560Z,99793.81
2023-05-23T03:35:17.078Z,99797.50
2023-05-23T03:36:20.389Z,99795.66
2023-05-23T03:37:23.211Z,99795.00
2023-05-23T03:38:27.945Z,99796.66
2023-05-23T03:39:30.533Z,99790.61
2023-05-23T03:40:35.807Z,99797.69
2023-05-23T03:41:38.116Z,99800.38
2023-05-23T03:42:40.826Z,99799.69
2023-05-23T03:43:44.531Z,99803.91
2023-05-23T03:44:47.630Z,99801.56
2023-05-23T03:45:50.171Z,99798.55
2023-05-23T03:46:53.337Z,99802.43
2023-05-23T03:47:56.666Z,99799.58
2023-05-23T03:48:59.587Z,99802.28
2023-05-23T03:50:02.001Z,99801.43
2023-05-23T03:51:05.709Z,99795.20
2023-05-23T03:52:08.620Z,99797.89
2023-05-23T03:53:11.403Z,99796.89
2023-05-23T03:54:13.959Z,99802.09
2023-05-23T03:55:16.328Z,99791.66
2023-05-23T03:56:19.314Z,99800.43
2023-05-23T03:57:22.020Z,99793.17
2023-05-23T03:58:25.726Z,99795.70
2023-05-23T03:59:29.972Z,99793.17
2023-05-23T04:00:34.283Z,99794.35
2023-05-23T04:01:38.890Z,99803.11
2023-05-23T04:02:41.398Z,99795.23
2023-05-23T04:03:43.794Z,99797.77
2023-05-23T04:04:46.096Z,99795.06
2023-05-23T04:05:48.230Z,99794.73
2023-05-23T04:06:51.152Z,99796.08
2023-05-23T04:07:53.395Z,99794.56
2023-05-23T04:08:59.022Z,99791.19
2023-05-23T04:10:01.941Z,99792.70
2023-05-23T04:11:06.081Z,99792.36
2023-05-23T04:12:10.391Z,99796.17
2023-05-23T04:13:13.530Z,99795.50
2023-05-23T04:14:15.851Z,99796.50
2023-05-23T04:15:18.172Z,99801.36
2023-05-23T04:16:28.450Z,99800.83
2023-05-23T04:17:31.616Z,99792.24
2023-05-23T04:18:34.178Z,99795.41
2023-05-23T04:19:38.555Z,99791.52
2023-05-23T04:20:41.665Z,99798.28
2023-05-23T04:21:44.330Z,99790.02
2023-05-23T04:22:50.323Z,99797.09
2023-05-23T04:23:54.064Z,99797.09
2023-05-23T04:24:59.130Z,99792.55
2023-05-23T04:26:04.036Z,99792.36
2023-05-23T04:27:08.860Z,99790.16
2023-05-23T04:28:12.295Z,99796.20
2023-05-23T04:29:14.653Z,99786.13
2023-05-23T04:30:17.884Z,99790.31
2023-05-23T04:31:21.984Z,99791.81
2023-05-23T04:32:24.691Z,99789.77
2023-05-23T04:33:26.983Z,99785.04
2023-05-23T04:34:30.184Z,99783.84
2023-05-23T04:35:33.459Z,99781.84
2023-05-23T04:36:35.923Z,99793.27
2023-05-23T04:37:38.394Z,99793.08
2023-05-23T04:38:41.650Z,99792.92
2023-05-23T04:39:44.452Z,99789.19
2023-05-23T04:40:48.620Z,99790.88
2023-05-23T04:42:03.046Z,99787.99
2023-05-23T04:44:30.198Z,99790.62
2023-05-23T04:45:36.937Z,99797.96
2023-05-23T04:46:41.222Z,99800.66
2023-05-23T04:47:51.560Z,99798.61
2023-05-23T04:48:55.695Z,99797.61
2023-05-23T04:49:58.484Z,99800.77
2023-05-23T04:51:01.319Z,99807.00
2023-05-23T04:52:04.773Z,99802.95
2023-05-23T04:53:08.287Z,99806.30
2023-05-23T04:54:11.562Z,99806.95
2023-05-23T04:55:14.092Z,99812.70
2023-05-23T04:56:18.896Z,99806.66
2023-05-23T04:57:23.059Z,99802.27
2023-05-23T04:58:25.828Z,99806.46
2023-05-23T04:59:29.970Z,99810.84
2023-05-23T05:00:32.380Z,99807.31
2023-05-23T05:01:35.554Z,99808.80
2023-05-23T05:02:40.707Z,99811.50
2023-05-23T05:03:44.261Z,99805.95
2023-05-23T05:04:46.539Z,99808.80
2023-05-23T05:05:48.871Z,99811.04
2023-05-23T05:06:52.424Z,99806.46
2023-05-23T05:07:55.046Z,99804.61
2023-05-23T05:08:57.293Z,99807.80
2023-05-23T05:10:01.045Z,99814.69
2023-05-23T05:11:04.896Z,99815.84
2023-05-23T05:12:08.816Z,99813.98
2023-05-23T05:13:10.978Z,99809.89
2023-05-23T05:14:17.613Z,99819.76
2023-05-23T05:15:19.746Z,99810.23
2023-05-23T05:16:24.718Z,99811.53
2023-05-23T05:17:28.106Z,99815.28
2023-05-23T05:18:38.656Z,99816.66
2023-05-23T05:19:40.992Z,99818.14
2023-05-23T05:20:43.880Z,99813.19
2023-05-23T05:21:46.270Z,99811.81
2023-05-23T05:24:08.023Z,99820.22
2023-05-23T05:25:10.900Z,99815.84
2023-05-23T05:26:14.245Z,99818.14
2023-05-23T05:27:17.701Z,99809.97
2023-05-23T05:28:20.118Z,99810.22
2023-05-23T05:29:24.213Z,99812.09
2023-05-23T05:30:27.754Z,99809.83
2023-05-23T05:31:32.174Z,99808.98
2023-05-23T05:32:35.536Z,99797.45
2023-05-23T05:33:38.408Z,99799.89
2023-05-23T05:34:42.627Z,99805.99
2023-05-23T05:35:45.435Z,99794.34
2023-05-23T05:36:50.295Z,99796.25
2023-05-23T05:37:54.050Z,99805.05
2023-05-23T05:38:56.419Z,99799.08
2023-05-23T05:39:58.801Z,99811.02
2023-05-23T05:41:01.207Z,99798.05
2023-05-23T05:42:06.304Z,99801.63
2023-05-23T05:43:09.223Z,99802.45
2023-05-23T05:44:11.307Z,99799.34
2023-05-23T05:45:13.738Z,99796.41
2023-05-23T05:46:18.357Z,99796.20
2023-05-23T05:47:20.762Z,99798.52
2023-05-23T05:48:24.059Z,99796.41
2023-05-23T05:49:28.339Z,99798.48
2023-05-23T05:50:32.432Z,99803.05
2023-05-23T05:51:35.650Z,99798.65
2023-05-23T05:52:38.788Z,99794.23
2023-05-23T05:53:43.084Z,99796.09
2023-05-23T05:54:45.976Z,99798.58
2023-05-23T05:55:48.350Z,99802.13
2023-05-23T05:56:52.378Z,99796.02
2023-05-23T05:57:54.818Z,99791.77
2023-05-23T05:58:58.008Z,99794.84
2023-05-23T06:00:00.317Z,99796.45
2023-05-23T06:01:03.213Z,99789.47
2023-05-23T06:02:06.435Z,99790.38
2023-05-23T06:03:08.856Z,99795.87
2023-05-23T06:04:13.432Z,99793.02
2023-05-23T06:05:16.204Z,99787.43
2023-05-23T06:06:18.927Z,99795.85
2023-05-23T06:07:21.326Z,99789.61
2023-05-23T06:08:23.749Z,99796.39
2023-05-23T06:09:26.164Z,99790.38
2023-05-23T06:10:29.239Z,99792.98
2023-05-23T06:11:32.479Z,99793.70
2023-05-23T06:12:35.403Z,99793.37
2023-05-23T06:13:38.382Z,99789.06
2023-05-23T06:14:40.897Z,99795.78
2023-05-23T06:15:44.209Z,99791.67
2023-05-23T06:16:46.986Z,99794.91
2023-05-23T06:17:49.256Z,99793.47
2023-05-23T06:18:52.171Z,99790.77
2023-05-23T06:19:55.692Z,99783.03
2023-05-23T06:22:15.429Z,99782.41
2023-05-23T06:23:18.656Z,99788.34
2023-05-23T06:24:21.990Z,99784.59
2023-05-23T06:25:24.601Z,99775.38
2023-05-23T06:26:33.221Z,99783.12
2023-05-23T06:27:35.582Z,99787.11
2023-05-23T06:28:38.717Z,99781.25
2023-05-23T06:29:42.531Z,99784.62
2023-05-23T06:30:44.849Z,99782.56
2023-05-23T06:31:47.291Z,99779.00
2023-05-23T06:32:49.493Z,99776.32
2023-05-23T06:33:53.716Z,99778.62
2023-05-23T06:34:56.127Z,99778.00
2023-05-23T06:35:58.651Z,99775.70
2023-05-23T06:37:01.523Z,99774.25
2023-05-23T06:38:03.884Z,99776.35
2023-05-23T06:39:06.356Z,99776.77
2023-05-23T06:40:11.482Z,99767.16
2023-05-23T06:41:14.048Z,99776.33
2023-05-23T06:42:16.740Z,99770.50
2023-05-23T06:43:26.643Z,99770.30
2023-05-23T06:44:30.887Z,99773.63
2023-05-23T06:45:34.118Z,99767.99
2023-05-23T06:46:39.742Z,99764.45
2023-05-23T06:47:41.760Z,99760.27
2023-05-23T06:48:43.949Z,99767.77
2023-05-23T06:49:46.809Z,99765.47
2023-05-23T06:50:49.798Z,99767.15
2023-05-23T06:51:52.799Z,99763.41
2023-05-23T06:52:55.553Z,99761.92
2023-05-23T06:53:58.432Z,99772.19
2023-05-23T06:55:00.748Z,99755.03
2023-05-23T06:56:03.191Z,99745.86
2023-05-23T06:57:06.993Z,99750.23
2023-05-23T06:58:10.322Z,99751.89
2023-05-23T06:59:12.792Z,99750.86
2023-05-23T07:00:17.162Z,99755.03
2023-05-23T07:01:21.490Z,99744.77
2023-05-23T07:02:25.189Z,99753.31
2023-05-23T07:03:27.921Z,99754.11
2023-05-23T07:04:33.184Z,99753.07
2023-05-23T07:05:40.111Z,99750.11
2023-05-23T07:06:41.616Z,99755.31
2023-05-23T07:07:44.006Z,99747.14
2023-05-23T07:08:46.708Z,99753.17
2023-05-23T07:09:50.763Z,99746.44
2023-05-23T07:10:54.017Z,99743.70
2023-05-23T07:11:58.111Z,99745.33
2023-05-23T07:13:01.208Z,99747.98
2023-05-23T07:14:03.658Z,99749.64
2023-05-23T07:15:11.616Z,99744.74
2023-05-23T07:16:16.582Z,99744.52
2023-05-23T07:17:20.828Z,99745.55
2023-05-23T07:18:23.974Z,99742.77
2023-05-23T07:19:27.080Z,99733.11
2023-05-23T07:20:33.222Z,99729.71
2023-05-23T07:21:37.460Z,99735.56
2023-05-23T07:22:40.809Z,99732.16
2023-05-23T07:23:43.228Z,99727.95
2023-05-23T07:24:46.197Z,99720.98
2023-05-23T07:26:01.209Z,99724.70
2023-05-23T07:27:00.649Z,99717.53
2023-05-23T07:28:02.954Z,99727.30
2023-05-23T07:29:05.522Z,99720.36
2023-05-23T07:30:08.951Z,99718.63
2023-05-23T07:31:12.241Z,99713.13
2023-05-23T07:32:15.586Z,99721.24
2023-05-23T07:33:18.686Z,99722.83
2023-05-23T07:34:22.077Z,99730.11
2023-05-23T07:35:29.147Z,99722.68
2023-05-23T07:36:32.360Z,99725.34
2023-05-23T07:37:36.061Z,99718.98
2023-05-23T07:38:38.563Z,99712.84
2023-05-23T07:39:41.642Z,99712.38
2023-05-23T07:40:46.719Z,99712.52
2023-05-23T07:41:48.853Z,99715.39
2023-05-23T07:42:53.041Z,99716.41
2023-05-23T07:43:55.159Z,99711.33
2023-05-23T07:44:58.020Z,99714.44
2023-05-23T07:46:00.706Z,99716.72
2023-05-23T07:47:03.833Z,99708.04
2023-05-23T07:49:45.227Z,99708.02
2023-05-23T07:50:47.700Z,99711.91
2023-05-23T07:51:50.004Z,99707.42
2023-05-23T07:52:52.944Z,99706.13
2023-05-23T07:53:57.209Z,99708.39
2023-05-23T07:54:59.638Z,99699.70
2023-05-23T07:56:04.267Z,99706.97
2023-05-23T07:57:08.729Z,99698.32
2023-05-23T07:58:12.738Z,99696.18
2023-05-23T07:59:19.040Z,99701.42
2023-05-23T08:00:22.843Z,99700.96
2023-05-23T08:01:27.952Z,99700.72
2023-05-23T08:02:35.197Z,99700.25
2023-05-23T08:03:37.665Z,99705.28
2023-05-23T08:04:41.827Z,99703.73
2023-05-23T08:05:45.679Z,99702.67
2023-05-23T08:07:00.787Z,99701.63
2023-05-23T08:07:56.290Z,99696.75
2023-05-23T08:09:02.210Z,99691.88
2023-05-23T08:10:07.015Z,99697.70
2023-05-23T08:11:09.491Z,99692.00
2023-05-23T08:12:13.716Z,99693.67
2023-05-23T08:13:17.798Z,99691.78
2023-05-23T08:14:24.700Z,99690.94
2023-05-23T08:15:29.538Z,99691.19
2023-05-23T08:16:34.797Z,99681.91
2023-05-23T08:17:39.189Z,99680.02
2023-05-23T08:18:41.508Z,99677.28
2023-05-23T08:19:43.972Z,99685.84
2023-05-23T08:20:48.930Z,99690.84
2023-05-23T08:21:54.310Z,99680.25
2023-05-23T08:23:02.338Z,99679.78
2023-05-23T08:24:14.100Z,99686.45
2023-05-23T08:25:17.628Z,99680.52
2023-05-23T08:26:20.154Z,99676.48
2023-05-23T08:27:23.193Z,99677.31
2023-05-23T08:28:27.394Z,99677.91
2023-05-23T08:29:30.546Z,99677.65
2023-05-23T08:31:47.900Z,99667.31
2023-05-23T08:32:52.451Z,99671.49
2023-05-23T08:33:59.662Z,99680.28
2023-05-23T08:35:05.136Z,99676.45
2023-05-23T08:36:14.827Z,99675.39
2023-05-23T08:37:20.885Z,99665.30
2023-05-23T08:38:24.511Z,99667.56
2023-05-23T08:39:30.860Z,99660.81
2023-05-23T08:40:52.767Z,99659.50
2023-05-23T08:41:56.065Z,99662.59
2023-05-23T08:43:00.739Z,99667.59
2023-05-23T08:44:06.780Z,99662.70
2023-05-23T08:45:12.055Z,99664.34
2023-05-23T08:46:18.202Z,99658.41
2023-05-23T08:47:22.480Z,99661.98
2023-05-23T08:48:28.392Z,99655.67
2023-05-23T08:49:32.060Z,99661.39
2023-05-23T08:50:37.110Z,99661.03
2023-05-23T08:51:42.295Z,99659.39
2023-05-23T08:52:57.885Z,99653.66
2023-05-23T08:54:01.142Z,99654.72
2023-05-23T08:56:23.753Z,99644.15
2023-05-23T08:57:28.427Z,99654.88
2023-05-23T08:58:34.586Z,99649.41
2023-05-23T08:59:38.601Z,99651.05
2023-05-23T09:00:43.075Z,99649.73
2023-05-23T09:01:47.763Z,99645.72
2023-05-23T09:02:50.210Z,99652.61
2023-05-23T09:03:57.951Z,99644.15
2023-05-23T09:05:11.809Z,99644.73
2023-05-23T09:06:15.673Z,99648.89
2023-05-23T09:07:18.955Z,99647.58
2023-05-23T09:08:22.183Z,99649.02
2023-05-23T09:09:26.460Z,99650.92
2023-05-23T09:10:30.852Z,99648.19
2023-05-23T09:11:36.238Z,99638.67
2023-05-23T09:12:41.526Z,99641.98
2023-05-23T09:13:45.639Z,99642.56
2023-05-23T09:14:51.547Z,99642.09
2023-05-23T09:17:38.932Z,99636.69
2023-05-23T09:18:44.509Z,99637.33
2023-05-23T09:19:48.708Z,99640.88
2023-05-23T09:21:05.652Z,99637.08
2023-05-23T09:22:09.410Z,99632.66
2023-05-23T09:23:15.662Z,99633.98
2023-05-23T09:24:20.150Z,99630.44
2023-05-23T09:25:22.647Z,99633.66
2023-05-23T09:26:27.102Z,99632.72
2023-05-23T09:27:31.332Z,99629.63
2023-05-23T09:28:36.782Z,99637.14
2023-05-23T09:29:45.393Z,99629.31
2023-05-23T09:30:43.883Z,99628.59
2023-05-23T09:31:49.328Z,99630.93
2023-05-23T09:33:02.900Z,99636.29
2023-05-23T09:34:06.139Z,99634.75
2023-05-23T09:35:12.077Z,99628.59
2023-05-23T09:36:17.040Z,99626.22
2023-05-23T09:37:19.885Z,99631.53
2023-05-23T09:38:22.662Z,99633.31
2023-05-23T09:39:25.353Z,99625.84
2023-05-23T09:40:36.028Z,99628.08
2023-05-23T09:41:50.860Z,99631.97
2023-05-23T09:44:11.345Z,99624.71
2023-05-23T09:45:15.900Z,99621.83
2023-05-23T09:46:22.434Z,99622.08
2023-05-23T09:47:25.740Z,99626.70
2023-05-23T09:48:29.803Z,99616.62
2023-05-23T09:49:32.527Z,99623.50
2023-05-23T09:50:35.565Z,99625.98
2023-05-23T09:51:38.216Z,99622.20
2023-05-23T09:52:40.554Z,99619.47
2023-05-23T09:53:43.406Z,99632.28
2023-05-23T09:54:46.720Z,99624.09
2023-05-23T09:55:52.409Z,99622.20
2023-05-23T09:56:55.604Z,99621.14
2023-05-23T09:57:58.902Z,99627.66
2023-05-23T09:59:02.851Z,99619.72
2023-05-23T10:00:07.527Z,99620.52
2023-05-23T10:01:13.684Z,99623.50
2023-05-23T10:02:18.682Z,99618.76
2023-05-23T10:04:51.614Z,99616.83
2023-05-23T10:07:21.095Z,99614.09
2023-05-23T10:09:58.888Z,99612.67
2023-05-23T10:11:18.103Z,99623.88
2023-05-23T10:12:38.449Z,99622.28
2023-05-23T10:13:45.317Z,99619.87
2023-05-23T10:14:52.693Z,99615.09
2023-05-23T10:17:20.306Z,99623.33
2023-05-23T10:18:29.571Z,99605.27
2023-05-23T10:19:54.190Z,99610.09
2023-05-23T10:21:00.602Z,99607.61
2023-05-23T10:22:06.983Z,99617.92
2023-05-23T10:23:11.838Z,99613.28
2023-05-23T10:24:16.182Z,99616.62
2023-05-23T10:25:19.118Z,99615.93
2023-05-23T10:26:28.031Z,99621.77
2023-05-23T10:27:32.698Z,99615.84
2023-05-23T10:28:35.914Z,99618.09
2023-05-23T10:29:38.498Z,99616.82
2023-05-23T10:30:41.663Z,99616.82
2023-05-23T10:31:45.361Z,99613.84
2023-05-23T10:32:48.377Z,99617.17
2023-05-23T10:34:00.104Z,99613.60
2023-05-23T10:35:27.474Z,99610.66
2023-05-23T10:38:09.115Z,99601.92
2023-05-23T10:39:17.905Z,99602.80
2023-05-23T10:40:33.043Z,99609.17
2023-05-23T10:41:52.151Z,99608.80
2023-05-23T10:43:17.772Z,99599.18
2023-05-23T10:44:26.881Z,99605.93
2023-05-23T10:45:30.983Z,99602.37
2023-05-23T10:46:58.027Z,99607.61
2023-05-23T10:48:03.794Z,99612.22
2023-05-23T10:49:08.377Z,99606.77
2023-05-23T10:50:17.482Z,99604.05
2023-05-23T10:51:23.942Z,99602.99
2023-05-23T10:52:27.357Z,99601.91
2023-05-23T10:54:55.873Z,99599.94
2023-05-23T10:55:58.082Z,99601.88
2023-05-23T10:57:05.058Z,99595.66
2023-05-23T10:58:19.416Z,99602.86
2023-05-23T10:59:21.720Z,99604.40
2023-05-23T11:00:26.704Z,99601.88
2023-05-23T11:01:30.102Z,99592.27
2023-05-23T11:02:32.506Z,99603.42
2023-05-23T11:03:40.798Z,99601.50
2023-05-23T11:04:45.007Z,99596.89
2023-05-23T11:05:53.484Z,99602.72
2023-05-23T11:06:56.360Z,99599.54
2023-05-23T11:09:26.156Z,99587.03
2023-05-23T11:10:31.065Z,99597.86
2023-05-23T11:13:16.821Z,99593.98
2023-05-23T11:14:21.153Z,99595.84
2023-05-23T11:15:23.589Z,99593.11
2023-05-23T11:17:44.236Z,99584.75
2023-05-23T11:18:46.615Z,99590.77
2023-05-23T11:20:08.516Z,99590.31
2023-05-23T11:21:11.124Z,99578.11
2023-05-23T11:22:13.337Z,99584.38
2023-05-23T11:23:15.444Z,99586.05
2023-05-23T11:24:17.741Z,99575.98
2023-05-23T11:25:21.090Z,99591.26
2023-05-23T11:27:42.290Z,99583.00
2023-05-23T11:28:58.684Z,99590.31
2023-05-23T11:30:04.511Z,99584.86
2023-05-23T11:31:07.495Z,99581.05
2023-05-23T11:32:16.063Z,99572.41
2023-05-23T11:33:16.657Z,99583.91
2023-05-23T11:34:21.186Z,99578.47
2023-05-23T11:35:23.864Z,99577.41
2023-05-23T11:36:27.416Z,99573.84
2023-05-23T11:37:30.794Z,99577.87
2023-05-23T11:38:33.680Z,99579.41
2023-05-23T11:39:36.154Z,99576.30
2023-05-23T11:40:41.821Z,99573.19
2023-05-23T11:42:01.670Z,99571.06
2023-05-23T11:44:18.631Z,99574.69
2023-05-23T11:45:21.812Z,99573.58
2023-05-23T11:46:24.224Z,99574.41
2023-05-23T11:47:26.312Z,99570.84
2023-05-23T11:48:28.994Z,99578.19
2023-05-23T11:49:43.099Z,99568.58
2023-05-23T11:50:51.787Z,99567.73
2023-05-23T11:52:02.093Z,99567.73
2023-05-23T11:53:09.543Z,99559.56
2023-05-23T11:54:11.930Z,99563.96
2023-05-23T11:55:16.853Z,99566.23
2023-05-23T11:56:19.416Z,99564.31
2023-05-23T11:57:23.366Z,99563.05
2023-05-23T11:58:38.500Z,99565.53
2023-05-23T11:59:44.204Z,99566.72
2023-05-23T12:00:48.686Z,99560.80
2023-05-23T12:02:12.643Z,99555.14
2023-05-23T12:03:15.654Z,99560.34
2023-05-23T12:04:18.292Z,99559.89
2023-05-23T12:05:20.865Z,99561.78
2023-05-23T12:06:25.285Z,99566.19
2023-05-23T12:07:29.090Z,99565.34
2023-05-23T12:08:33.052Z,99561.78
2023-05-23T12:09:44.127Z,99559.52
2023-05-23T12:10:57.688Z,99565.45
2023-05-23T12:12:00.166Z,99560.67
2023-05-23T12:13:04.851Z,99566.23
2023-05-23T12:14:18.084Z,99554.35
2023-05-23T12:15:25.195Z,99559.42
2023-05-23T12:16:28.571Z,99560.92
2023-05-23T12:17:33.807Z,99560.54
2023-05-23T12:18:37.468Z,99562.64
2023-05-23T12:19:43.743Z,99558.48
2023-05-23T12:20:50.756Z,99559.17
2023-05-23T12:21:53.127Z,99560.92
2023-05-23T12:22:58.406Z,99560.98
2023-05-23T12:24:04.326Z,99557.06
2023-05-23T12:26:24.825Z,99555.08
2023-05-23T12:27:32.895Z,99551.02
2023-05-23T12:28:40.557Z,99557.91
2023-05-23T12:29:44.691Z,99549.27
2023-05-23T12:30:47.307Z,99554.48
2023-05-23T12:31:49.915Z,99546.91
2023-05-23T12:34:23.564Z,99537.30
2023-05-23T12:35:30.643Z,99541.63
2023-05-23T12:36:41.947Z,99545.79
2023-05-23T12:37:42.128Z,99543.66
2023-05-23T12:38:48.077Z,99548.03
2023-05-23T12:39:51.128Z,99544.25
2023-05-23T12:41:12.552Z,99535.03
2023-05-23T12:42:15.272Z,99536.46
2023-05-23T12:43:20.254Z,99537.66
2023-05-23T12:44:22.976Z,99534.72
2023-05-23T12:45:33.729Z,99541.63
2023-05-23T12:46:36.093Z,99531.32
2023-05-23T12:47:38.282Z,99533.59
2023-05-23T12:48:40.544Z,99530.63
2023-05-23T12:49:43.644Z,99531.25
2023-05-23T12:50:46.179Z,99534.32
2023-05-23T12:51:48.570Z,99530.33
2023-05-23T12:52:50.958Z,99530.09
2023-05-23T12:53:54.603Z,99535.30
2023-05-23T12:56:14.540Z,99530.73
2023-05-23T12:57:16.880Z,99527.28
2023-05-23T12:58:20.709Z,99521.58
2023-05-23T12:59:23.376Z,99525.73
2023-05-23T13:00:26.195Z,99529.52
2023-05-23T13:01:29.142Z,99521.20
2023-05-23T13:02:32.901Z,99529.84
2023-05-23T13:03:35.290Z,99526.77
2023-05-23T13:04:37.552Z,99527.89
2023-05-23T13:05:42.627Z,99528.59
2023-05-23T13:06:45.186Z,99529.72
2023-05-23T13:07:47.442Z,99524.34
2023-05-23T13:08:50.012Z,99528.81
2023-05-23T13:09:52.665Z,99528.08
2023-05-23T13:10:55.150Z,99522.48
2023-05-23T13:11:58.002Z,99534.88
2023-05-23T13:13:00.280Z,99536.17
2023-05-23T13:14:05.267Z,99530.34
2023-05-23T13:15:09.096Z,99535.78
2023-05-23T13:16:15.752Z,99528.69
2023-05-23T13:17:19.523Z,99537.07